Aviation Digital Data Service (ADDS)

Output produced by METARs form (1826 UTC 22 November 2017)
found at http://www.aviationweather.gov/adds/metars/
 
MUSC 221700Z 2218/2318 07008KT 9000 SCT020 
     TEMPO 2218/2224 4000 TSRA SCT018CB BKN020 
     BECMG 2301/2303 VRB03KT FEW020
       
MUCU 221700Z 2218/2318 21008KT 9000 SCT020 BKN060 
     TEMPO 2218/2224 3000 TSRA SCT018CB BKN020 
     BECMG 2302/2304 02007KT FEW020
       
MUHG 221700Z 2218/2318 15008KT 9000 SCT020 BKN060 
     TEMPO 2218/2301 3000 TSRA SCT018CB BKN020 
     BECMG 2302/2304 VRB03KT FEW020
       
TAF MUGM 2215/2315 33008KT 9999 VCSH SCT020 BKN035 BKN110 QNH2988INS 
     BECMG 2216/2218 19008KT 9999 NSW FEW020 SCT035 BKN110 QNH2982INS 
     BECMG 2221/2223 VRB10G18KT 9999 VCTS SCT020CB BKN040 BKN110 QNH2982INS 
     FM230400 35006KT 9999 VCSH FEW025 SCT060 BKN120 QNH2986INS T30/2217Z T22/2310Z FN20026
       
MUCM 221700Z 2218/2318 10008KT 9000 SCT020 BKN060 
     TEMPO 2218/2224 3000 TSRA SCT018CB BKN020 
     BECMG 2301/2303 VRB03KT FEW020
       
MUCF 221700Z 2218/2224 23006KT 9000 SCT020 
     TEMPO 2220/2224 4000 TSRA SCT018CB BKN020
       
MUCC 221700Z 2218/2318 07008KT 9000 SCT020 
     TEMPO 2219/2224 3000 TSRA SHRA SCT018CB BKN020 
     BECMG 2301/2303 VRB03KT FEW020
       
MUHA 221700Z 2218/2318 10008KT 9000 SCT025 
     BECMG 2301/2303 VRB03KT 
     TEMPO 2306/2312 3000 PRFG 
     BECMG 2313/2315 16008KT
       
MUVR 221700Z 2218/2318 07008KT 9000 SCT020 
     TEMPO 2220/2224 5000 SHRA FEW018CB BKN020 
     BECMG 2301/2303 VRB03KT FEW020
       
MUCL 221700Z 2218/2224 06010KT 9000 SCT020